You are not logged in, Click here to log in
ICAO: RJOO Country: 日本兵庫縣伊丹市
Latitude: 34.7896 Longitude: 135.438
Total Arrivals: 18 Total Departures: 14
Latest Arrival: NH1632 (RJOM-RJOO)Lun. Wang Latest Departure: EH783B (RJOO-RJFU)Lun. Wang
Scenery:
METAR : RJOO 210700Z 22008KT 180V250 9999 FEW025 SCT140 BKN/// 31/24 Q1008 RMK 1CU025 4AC140 A2978

大阪国際空港ITM